createdAt,value
2023-01-01T00:02:01.157Z,38.13
2023-01-01T00:04:32.026Z,39.43
2023-01-01T00:07:00.465Z,40.70
2023-01-01T00:09:45.881Z,41.17
2023-01-01T00:12:14.310Z,41.97
2023-01-01T00:14:44.543Z,41.07
2023-01-01T00:17:12.963Z,41.40
2023-01-01T00:19:42.681Z,42.77
2023-01-01T00:22:44.073Z,42.53
2023-01-01T00:24:59.298Z,43.10
2023-01-01T00:27:27.616Z,41.47
2023-01-01T00:29:55.892Z,40.50
2023-01-01T00:32:24.534Z,41.40
2023-01-01T00:34:54.487Z,39.50
2023-01-01T00:37:22.844Z,41.23
2023-01-01T00:39:51.172Z,41.20
2023-01-01T00:42:19.453Z,41.57
2023-01-01T00:44:47.768Z,43.87
2023-01-01T00:47:16.092Z,44.37
2023-01-01T00:49:44.579Z,38.87
2023-01-01T00:52:14.330Z,40.23
2023-01-01T00:54:42.809Z,39.43
2023-01-01T00:57:11.090Z,37.97
2023-01-01T00:59:39.345Z,37.40
2023-01-01T01:02:07.804Z,36.10
2023-01-01T01:04:36.138Z,41.53
2023-01-01T01:07:04.574Z,36.63
2023-01-01T01:09:34.422Z,37.00
2023-01-01T01:12:18.785Z,37.13
2023-01-01T01:14:48.017Z,39.53
2023-01-01T01:17:16.278Z,36.97
2023-01-01T01:19:44.564Z,40.50
2023-01-01T01:22:12.917Z,45.30
2023-01-01T01:24:42.644Z,39.67
2023-01-01T01:27:11.365Z,43.10
2023-01-01T01:29:39.690Z,43.63
2023-01-01T01:32:08.010Z,40.50
2023-01-01T01:34:36.272Z,44.07
2023-01-01T01:37:04.931Z,41.47
2023-01-01T01:39:33.251Z,40.93
2023-01-01T01:42:03.886Z,53.23
2023-01-01T01:44:57.633Z,59.23
2023-01-01T01:47:30.836Z,60.23
2023-01-01T01:50:03.019Z,64.30
2023-01-01T01:52:31.896Z,77.67
2023-01-01T01:55:02.283Z,77.97
2023-01-01T01:57:32.588Z,70.63
2023-01-01T02:00:08.680Z,62.57
2023-01-01T02:02:43.909Z,73.27
2023-01-01T02:05:13.088Z,71.57
2023-01-01T02:07:41.487Z,72.30
2023-01-01T02:10:10.436Z,72.00
2023-01-01T02:12:40.230Z,79.80
2023-01-01T02:15:09.775Z,89.83
2023-01-01T02:17:42.136Z,76.00
2023-01-01T02:20:24.223Z,68.50
2023-01-01T02:23:24.085Z,72.87
2023-01-01T02:26:02.608Z,65.17
2023-01-01T02:28:50.186Z,59.20
2023-01-01T02:31:23.868Z,59.80
2023-01-01T02:33:54.618Z,54.67
2023-01-01T02:36:23.692Z,55.50
2023-01-01T02:38:54.471Z,46.30
2023-01-01T02:41:25.629Z,51.23
2023-01-01T02:48:53.179Z,46.87
2023-01-01T02:51:27.451Z,47.80
2023-01-01T02:54:02.998Z,52.37
2023-01-01T02:56:37.632Z,45.87
2023-01-01T02:59:34.150Z,42.40
2023-01-01T03:02:06.412Z,40.40
2023-01-01T03:04:45.040Z,42.60
2023-01-01T03:07:19.663Z,43.60
2023-01-01T03:09:56.455Z,39.23
2023-01-01T03:12:39.914Z,39.83
2023-01-01T03:15:16.706Z,34.20
2023-01-01T03:17:48.575Z,29.63
2023-01-01T03:20:19.795Z,32.50
2023-01-01T03:22:48.907Z,32.10
2023-01-01T03:25:21.908Z,34.13
2023-01-01T03:27:51.609Z,33.60
2023-01-01T03:30:22.440Z,40.90
2023-01-01T03:33:03.852Z,41.83
2023-01-01T03:35:38.557Z,35.53
2023-01-01T03:38:10.892Z,37.17
2023-01-01T03:40:40.306Z,39.87
2023-01-01T03:43:13.298Z,36.40
2023-01-01T03:45:44.726Z,35.50
2023-01-01T03:48:13.403Z,32.13
2023-01-01T03:50:51.718Z,29.90
2023-01-01T03:53:33.103Z,32.03
2023-01-01T03:56:07.977Z,27.43
2023-01-01T03:58:41.621Z,26.73
2023-01-01T04:01:19.581Z,22.10
2023-01-01T04:03:48.511Z,22.70
2023-01-01T04:06:17.029Z,27.35
2023-01-01T04:08:45.879Z,28.53
2023-01-01T04:11:40.906Z,25.07
2023-01-01T04:14:09.519Z,26.10
2023-01-01T04:16:40.067Z,29.30
2023-01-01T04:19:08.675Z,28.57
2023-01-01T04:21:37.056Z,26.83
2023-01-01T04:24:05.995Z,21.33
2023-01-01T04:26:34.372Z,24.30
2023-01-01T04:29:02.837Z,15.80
2023-01-01T04:31:31.357Z,26.93
2023-01-01T04:34:02.825Z,28.23
2023-01-01T04:36:32.015Z,20.33
2023-01-01T04:39:00.644Z,20.50
2023-01-01T04:41:31.753Z,20.23
2023-01-01T04:44:01.761Z,21.20
2023-01-01T04:46:30.515Z,18.10
2023-01-01T04:49:02.255Z,29.43
2023-01-01T04:51:31.563Z,21.30
2023-01-01T04:54:02.344Z,29.73
2023-01-01T04:56:30.784Z,32.40
2023-01-01T04:58:59.553Z,28.43
2023-01-01T05:01:29.955Z,36.50
2023-01-01T05:04:00.704Z,34.60
2023-01-01T05:06:30.339Z,38.40
2023-01-01T05:09:04.086Z,40.37
2023-01-01T05:11:34.139Z,36.57
2023-01-01T05:14:03.120Z,51.70
2023-01-01T05:16:32.921Z,51.07
2023-01-01T05:19:05.200Z,52.30
2023-01-01T05:21:35.107Z,48.33
2023-01-01T05:24:06.280Z,57.47
2023-01-01T05:26:37.128Z,77.80
2023-01-01T05:29:11.903Z,60.80
2023-01-01T05:31:45.786Z,74.20
2023-01-01T05:34:15.952Z,84.07
2023-01-01T05:36:47.510Z,69.70
2023-01-01T05:39:16.180Z,77.37
2023-01-01T05:41:45.379Z,79.47
2023-01-01T05:44:16.715Z,74.73
2023-01-01T05:46:45.340Z,71.53
2023-01-01T05:49:16.805Z,80.20
2023-01-01T05:51:48.519Z,66.80
2023-01-01T05:56:49.832Z,70.97
2023-01-01T05:59:19.861Z,64.90
2023-01-01T06:01:51.647Z,64.93
2023-01-01T06:04:24.829Z,63.03
2023-01-01T06:06:54.659Z,66.93
2023-01-01T06:09:23.143Z,58.90
2023-01-01T06:11:53.374Z,59.47
2023-01-01T06:14:21.919Z,59.67
2023-01-01T06:16:51.162Z,64.03
2023-01-01T06:19:19.944Z,62.47
2023-01-01T06:21:50.209Z,65.40
2023-01-01T06:24:20.031Z,59.47
2023-01-01T06:26:49.481Z,52.40
2023-01-01T06:29:17.842Z,54.97
2023-01-01T06:31:47.783Z,51.43
2023-01-01T06:34:16.357Z,48.60
2023-01-01T06:36:45.082Z,50.30
2023-01-01T06:39:15.113Z,46.97
2023-01-01T06:41:46.419Z,47.50
2023-01-01T06:44:17.562Z,49.40
2023-01-01T06:46:46.424Z,47.77
2023-01-01T06:49:18.054Z,46.00
2023-01-01T06:51:46.378Z,44.60
2023-01-01T06:54:16.424Z,43.10
2023-01-01T06:56:45.607Z,42.20
2023-01-01T06:59:14.158Z,43.00
2023-01-01T07:01:44.439Z,41.90
2023-01-01T07:04:15.515Z,41.20
2023-01-01T07:06:50.106Z,41.90
2023-01-01T07:09:20.525Z,42.33
2023-01-01T07:11:55.424Z,47.00
2023-01-01T07:14:24.189Z,43.37
2023-01-01T07:16:52.891Z,42.47
2023-01-01T07:19:22.309Z,42.30
2023-01-01T07:21:54.249Z,42.20
2023-01-01T07:24:24.529Z,41.97
2023-01-01T07:26:53.197Z,45.23
2023-01-01T07:29:21.861Z,42.10
2023-01-01T07:31:53.011Z,44.10
2023-01-01T07:34:23.050Z,41.63
2023-01-01T07:36:51.679Z,43.00
2023-01-01T07:39:20.165Z,46.50
2023-01-01T07:41:51.589Z,47.60
2023-01-01T07:44:20.033Z,40.53
2023-01-01T07:46:49.127Z,38.43
2023-01-01T07:49:17.474Z,38.00
2023-01-01T07:51:47.243Z,39.70
2023-01-01T07:54:15.814Z,40.80
2023-01-01T07:56:44.423Z,40.10
2023-01-01T07:59:18.520Z,40.43
2023-01-01T08:01:48.857Z,39.07
2023-01-01T08:04:17.841Z,34.37
2023-01-01T08:06:46.828Z,39.60
2023-01-01T08:09:15.501Z,36.33
2023-01-01T08:11:43.972Z,35.80
2023-01-01T08:14:13.899Z,31.20
2023-01-01T08:16:42.397Z,31.67
2023-01-01T08:19:10.799Z,28.47
2023-01-01T08:21:39.298Z,30.83
2023-01-01T08:24:08.335Z,30.87
2023-01-01T08:26:37.968Z,25.30
2023-01-01T08:29:07.777Z,28.30
2023-01-01T08:31:37.761Z,26.70
2023-01-01T08:34:06.537Z,26.93
2023-01-01T08:36:35.276Z,24.33
2023-01-01T08:39:03.688Z,32.80
2023-01-01T08:41:32.100Z,28.90
2023-01-01T08:44:00.509Z,20.17
2023-01-01T08:46:28.917Z,17.40
2023-01-01T08:48:59.221Z,14.90
2023-01-01T08:51:27.845Z,10.90
2023-01-01T08:53:56.293Z,18.60
2023-01-01T08:56:24.713Z,15.97
2023-01-01T08:58:55.138Z,14.83
2023-01-01T09:01:28.144Z,15.70
2023-01-01T09:03:58.873Z,14.23
2023-01-01T09:06:29.033Z,13.90
2023-01-01T09:08:58.213Z,22.00
2023-01-01T09:11:28.915Z,23.30
2023-01-01T09:13:57.199Z,29.63
2023-01-01T09:16:25.813Z,33.67
2023-01-01T09:18:54.062Z,31.83
2023-01-01T09:21:23.776Z,31.60
2023-01-01T09:23:53.542Z,31.10
2023-01-01T09:26:22.179Z,35.50
2023-01-01T09:28:51.704Z,44.13
2023-01-01T09:31:19.996Z,46.90
2023-01-01T09:33:49.162Z,41.67
2023-01-01T09:36:30.659Z,40.63
2023-01-01T09:39:00.176Z,42.13
2023-01-01T09:41:40.379Z,42.90
2023-01-01T09:44:16.843Z,39.73
2023-01-01T09:46:46.083Z,40.50
2023-01-01T09:49:19.472Z,38.60
2023-01-01T09:51:58.193Z,37.33
2023-01-01T09:54:29.563Z,37.63
2023-01-01T09:56:59.940Z,36.10
2023-01-01T09:59:29.641Z,33.50
2023-01-01T10:02:02.448Z,34.93
2023-01-01T10:04:45.669Z,33.53
2023-01-01T10:07:21.295Z,27.27
2023-01-01T10:09:55.859Z,29.10
2023-01-01T10:12:30.150Z,29.33
2023-01-01T10:15:03.701Z,30.73
2023-01-01T10:17:34.715Z,30.73
2023-01-01T10:20:06.516Z,29.97
2023-01-01T10:22:38.068Z,28.80
2023-01-01T10:25:16.051Z,28.57
2023-01-01T10:27:47.515Z,28.87
2023-01-01T10:30:19.076Z,26.20
2023-01-01T10:32:49.029Z,25.07
2023-01-01T10:35:22.908Z,25.40
2023-01-01T10:37:55.047Z,27.03
2023-01-01T10:40:26.632Z,27.53
2023-01-01T10:42:56.598Z,25.43
2023-01-01T10:45:31.545Z,23.03
2023-01-01T10:48:15.678Z,21.47
2023-01-01T10:50:47.119Z,22.30
2023-01-01T10:53:28.927Z,22.50
2023-01-01T10:56:03.259Z,22.00
2023-01-01T10:58:45.679Z,22.07
2023-01-01T11:01:23.067Z,20.43
2023-01-01T11:04:00.001Z,18.50
2023-01-01T11:06:29.848Z,17.77
2023-01-01T11:09:04.127Z,17.20
2023-01-01T11:11:42.729Z,17.20
2023-01-01T11:14:22.286Z,19.00
2023-01-01T11:16:51.107Z,18.60
2023-01-01T11:19:27.440Z,19.70
2023-01-01T11:21:56.277Z,17.70
2023-01-01T11:24:27.382Z,16.47
2023-01-01T11:27:15.037Z,14.87
2023-01-01T11:29:43.731Z,15.00
2023-01-01T11:32:18.356Z,15.30
2023-01-01T11:34:48.373Z,14.17
2023-01-01T11:37:24.384Z,15.50
2023-01-01T11:39:55.597Z,15.30
2023-01-01T11:42:27.086Z,15.13
2023-01-01T11:44:56.935Z,16.53
2023-01-01T11:47:28.461Z,16.33
2023-01-01T11:49:59.238Z,15.07
2023-01-01T11:52:37.082Z,17.40
2023-01-01T11:55:14.976Z,16.33
2023-01-01T11:57:46.320Z,16.13
2023-01-01T12:00:16.701Z,14.53
2023-01-01T12:02:50.055Z,14.33
2023-01-01T12:05:21.852Z,15.90
2023-01-01T12:07:50.532Z,14.80
2023-01-01T12:10:23.674Z,17.93
2023-01-01T12:12:54.614Z,16.50
2023-01-01T12:15:27.630Z,14.00
2023-01-01T12:18:02.939Z,14.33
2023-01-01T12:20:33.838Z,14.03
2023-01-01T12:23:03.475Z,11.03
2023-01-01T12:25:39.073Z,10.53
2023-01-01T12:28:18.964Z,12.00
2023-01-01T12:30:54.121Z,11.60
2023-01-01T12:33:41.994Z,11.60
2023-01-01T12:36:20.553Z,12.50
2023-01-01T12:39:18.542Z,12.50
2023-01-01T12:41:53.135Z,13.63
2023-01-01T12:44:27.433Z,13.17
2023-01-01T12:47:01.422Z,13.30
2023-01-01T12:49:48.507Z,14.47
2023-01-01T12:52:26.103Z,14.30
2023-01-01T12:55:40.102Z,14.63
2023-01-01T12:58:14.369Z,15.20
2023-01-01T13:00:45.347Z,16.07
2023-01-01T13:03:20.124Z,15.97
2023-01-01T13:05:52.095Z,15.17
2023-01-01T13:08:20.345Z,14.60
2023-01-01T13:10:50.728Z,14.47
2023-01-01T13:13:20.721Z,14.93
2023-01-01T13:15:51.852Z,14.40
2023-01-01T13:18:26.353Z,15.30
2023-01-01T13:21:04.462Z,15.10
2023-01-01T13:23:53.174Z,15.03
2023-01-01T13:26:37.478Z,13.70
2023-01-01T13:29:35.335Z,13.93
2023-01-01T13:32:06.666Z,12.53
2023-01-01T13:35:02.797Z,13.00
2023-01-01T13:37:55.325Z,13.67
2023-01-01T13:40:42.276Z,14.30
2023-01-01T13:43:27.900Z,12.87
2023-01-01T13:46:15.282Z,12.33
2023-01-01T13:49:07.934Z,13.67
2023-01-01T13:55:30.031Z,12.70
2023-01-01T13:58:14.957Z,12.47
2023-01-01T14:00:55.193Z,10.80
2023-01-01T14:03:26.156Z,11.13
2023-01-01T14:05:57.834Z,14.07
2023-01-01T14:08:31.001Z,13.03
2023-01-01T14:11:02.234Z,11.57
2023-01-01T14:13:32.592Z,13.80
2023-01-01T14:16:03.694Z,12.93
2023-01-01T14:18:37.836Z,12.83
2023-01-01T14:21:10.013Z,12.80
2023-01-01T14:23:41.198Z,12.80
2023-01-01T14:26:12.546Z,10.73
2023-01-01T14:28:41.268Z,11.77
2023-01-01T14:31:12.926Z,11.20
2023-01-01T14:33:43.007Z,11.60
2023-01-01T14:36:18.619Z,11.00
2023-01-01T14:38:48.405Z,13.50
2023-01-01T14:41:21.240Z,12.60
2023-01-01T14:43:51.526Z,12.90
2023-01-01T14:46:22.157Z,11.83
2023-01-01T14:48:54.003Z,12.63
2023-01-01T14:51:24.966Z,12.10
2023-01-01T14:53:54.328Z,11.60
2023-01-01T14:56:24.747Z,11.27
2023-01-01T14:58:53.427Z,13.20
2023-01-01T15:01:25.069Z,12.27
2023-01-01T15:04:00.005Z,12.80
2023-01-01T15:06:29.396Z,13.17
2023-01-01T15:08:58.086Z,12.53
2023-01-01T15:11:29.348Z,11.30
2023-01-01T15:14:01.222Z,12.50
2023-01-01T15:16:36.321Z,12.30
2023-01-01T15:19:20.311Z,12.43
2023-01-01T15:21:48.691Z,13.30
2023-01-01T15:24:22.292Z,13.27
2023-01-01T15:26:52.794Z,12.03
2023-01-01T15:29:27.885Z,14.50
2023-01-01T15:31:58.652Z,14.83
2023-01-01T15:34:31.482Z,17.13
2023-01-01T15:37:09.466Z,18.10
2023-01-01T15:39:50.053Z,15.80
2023-01-01T15:42:33.109Z,16.70
2023-01-01T15:45:21.786Z,15.13
2023-01-01T15:47:50.943Z,13.30
2023-01-01T15:50:25.681Z,14.80
2023-01-01T15:52:59.307Z,13.00
2023-01-01T15:55:30.802Z,14.50
2023-01-01T15:58:00.497Z,12.17
2023-01-01T16:00:33.320Z,14.27
2023-01-01T16:03:03.712Z,13.00
2023-01-01T16:05:33.816Z,12.17
2023-01-01T16:08:03.412Z,12.30
2023-01-01T16:10:33.214Z,14.37
2023-01-01T16:13:01.599Z,13.70
2023-01-01T16:15:30.050Z,13.87
2023-01-01T16:17:58.405Z,13.90
2023-01-01T16:20:27.172Z,11.47
2023-01-01T16:22:57.012Z,12.97
2023-01-01T16:25:26.294Z,14.23
2023-01-01T16:27:54.773Z,13.47
2023-01-01T16:30:27.112Z,14.17
2023-01-01T16:32:55.702Z,12.07
2023-01-01T16:35:24.421Z,12.23
2023-01-01T16:37:52.795Z,12.70
2023-01-01T16:40:22.933Z,12.70
2023-01-01T16:42:51.314Z,14.00
2023-01-01T16:45:20.024Z,12.97
2023-01-01T16:47:48.783Z,13.80
2023-01-01T16:50:17.317Z,15.27
2023-01-01T16:52:45.777Z,16.67
2023-01-01T16:55:14.641Z,15.00
2023-01-01T16:57:45.231Z,16.00
2023-01-01T17:00:15.823Z,18.70
2023-01-01T17:02:44.904Z,15.40
2023-01-01T17:05:20.040Z,14.90
2023-01-01T17:07:48.711Z,16.27
2023-01-01T17:10:17.755Z,16.57
2023-01-01T17:12:47.711Z,14.00
2023-01-01T17:15:16.666Z,15.37
2023-01-01T17:17:45.082Z,15.43
2023-01-01T17:20:13.529Z,15.93
2023-01-01T17:22:44.534Z,15.90
2023-01-01T17:25:13.587Z,15.07
2023-01-01T17:27:42.669Z,14.13
2023-01-01T17:30:18.345Z,13.20
2023-01-01T17:32:47.217Z,13.60
2023-01-01T17:35:16.146Z,14.70
2023-01-01T17:37:44.885Z,14.50
2023-01-01T17:40:14.303Z,13.97
2023-01-01T17:42:43.067Z,14.27
2023-01-01T17:45:13.279Z,17.33
2023-01-01T17:47:41.990Z,15.17
2023-01-01T17:50:11.314Z,14.10
2023-01-01T17:52:40.405Z,14.60
2023-01-01T17:55:09.943Z,19.10
2023-01-01T17:57:41.468Z,20.10
2023-01-01T18:00:16.902Z,17.37
2023-01-01T18:02:47.060Z,15.67
2023-01-01T18:05:16.214Z,16.00
2023-01-01T18:07:45.876Z,15.30
2023-01-01T18:10:14.794Z,14.63
2023-01-01T18:12:43.744Z,15.10
2023-01-01T18:15:13.935Z,14.70
2023-01-01T18:17:43.573Z,14.57
2023-01-01T18:20:12.955Z,15.30
2023-01-01T18:22:43.372Z,12.60
2023-01-01T18:25:12.553Z,14.10
2023-01-01T18:27:41.219Z,15.30
2023-01-01T18:30:10.963Z,14.60
2023-01-01T18:32:41.619Z,13.97
2023-01-01T18:35:11.300Z,14.33
2023-01-01T18:37:40.629Z,15.73
2023-01-01T18:40:14.095Z,15.50
2023-01-01T18:42:48.788Z,16.10
2023-01-01T18:45:20.561Z,14.87
2023-01-01T18:47:51.487Z,16.63
2023-01-01T18:50:25.985Z,15.60
2023-01-01T18:52:57.216Z,14.67
2023-01-01T18:55:28.187Z,15.57
2023-01-01T18:58:01.239Z,13.53
2023-01-01T19:00:31.396Z,14.17
2023-01-01T19:03:03.311Z,15.97
2023-01-01T19:05:33.884Z,14.53
2023-01-01T19:08:11.099Z,14.10
2023-01-01T19:10:41.043Z,13.60
2023-01-01T19:13:21.988Z,15.00
2023-01-01T19:15:55.661Z,13.57
2023-01-01T19:18:27.864Z,11.00
2023-01-01T19:21:01.749Z,13.63
2023-01-01T19:23:33.042Z,15.80
2023-01-01T19:26:08.251Z,13.83
2023-01-01T19:28:38.491Z,12.67
2023-01-01T19:31:08.418Z,13.90
2023-01-01T19:33:42.800Z,11.83
2023-01-01T19:36:14.718Z,13.00
2023-01-01T19:38:44.223Z,12.50
2023-01-01T19:41:13.472Z,13.33
2023-01-01T19:43:45.615Z,11.97
2023-01-01T19:46:16.128Z,12.30
2023-01-01T19:48:47.102Z,13.47
2023-01-01T19:51:16.095Z,12.40
2023-01-01T19:53:45.695Z,12.40
2023-01-01T19:56:16.695Z,11.90
2023-01-01T19:58:47.083Z,10.90
2023-01-01T20:01:21.120Z,12.40
2023-01-01T20:03:56.957Z,10.10
2023-01-01T20:06:28.850Z,10.70
2023-01-01T20:09:03.758Z,10.80
2023-01-01T20:11:33.879Z,12.57
2023-01-01T20:14:04.874Z,12.13
2023-01-01T20:16:35.343Z,11.03
2023-01-01T20:19:09.270Z,9.70
2023-01-01T20:21:56.792Z,9.40
2023-01-01T20:24:30.622Z,10.17
2023-01-01T20:27:02.026Z,9.27
2023-01-01T20:29:30.680Z,9.47
2023-01-01T20:32:00.978Z,10.17
2023-01-01T20:34:32.706Z,12.20
2023-01-01T20:37:22.964Z,10.30
2023-01-01T20:39:52.479Z,11.50
2023-01-01T20:42:23.241Z,9.90
2023-01-01T20:44:53.461Z,11.97
2023-01-01T20:47:30.102Z,10.93
2023-01-01T20:50:02.091Z,13.47
2023-01-01T20:52:32.203Z,11.77
2023-01-01T20:55:02.645Z,12.00
2023-01-01T20:57:32.609Z,13.50
2023-01-01T21:00:02.387Z,12.87
2023-01-01T21:02:34.415Z,11.90
2023-01-01T21:05:06.776Z,14.30
2023-01-01T21:07:36.071Z,15.40
2023-01-01T21:10:06.394Z,16.90
2023-01-01T21:12:38.407Z,18.47
2023-01-01T21:15:15.933Z,18.73
2023-01-01T21:17:46.995Z,17.70
2023-01-01T21:20:18.693Z,16.97
2023-01-01T21:22:48.351Z,18.37
2023-01-01T21:25:50.535Z,18.03
2023-01-01T21:28:13.778Z,18.70
2023-01-01T21:30:48.890Z,17.70
2023-01-01T21:33:23.892Z,18.80
2023-01-01T21:35:53.713Z,17.60
2023-01-01T21:38:25.068Z,16.87
2023-01-01T21:40:54.945Z,17.37
2023-01-01T21:43:34.286Z,17.73
2023-01-01T21:46:33.846Z,17.17
2023-01-01T21:49:04.775Z,18.07
2023-01-01T21:51:37.640Z,15.00
2023-01-01T21:54:32.225Z,17.93
2023-01-01T21:57:01.684Z,17.67
2023-01-01T21:59:35.575Z,18.57
2023-01-01T22:02:36.601Z,16.00
2023-01-01T22:05:30.333Z,15.50
2023-01-01T22:08:19.036Z,16.10
2023-01-01T22:10:47.457Z,15.80
2023-01-01T22:13:18.561Z,15.60
2023-01-01T22:15:47.399Z,15.87
2023-01-01T22:18:20.564Z,15.90
2023-01-01T22:20:49.664Z,15.90
2023-01-01T22:23:25.671Z,14.17
2023-01-01T22:25:54.056Z,15.80
2023-01-01T22:28:25.511Z,15.03
2023-01-01T22:30:55.822Z,14.03
2023-01-01T22:33:28.160Z,13.70
2023-01-01T22:35:57.441Z,15.60
2023-01-01T22:38:32.908Z,15.73
2023-01-01T22:41:01.612Z,15.43
2023-01-01T22:43:34.137Z,14.93
2023-01-01T22:46:08.086Z,13.97
2023-01-01T22:48:38.577Z,13.37
2023-01-01T22:51:08.176Z,12.10
2023-01-01T22:53:37.939Z,12.33
2023-01-01T22:56:07.794Z,13.03
2023-01-01T22:58:36.151Z,13.37
2023-01-01T23:01:04.524Z,11.90
2023-01-01T23:03:33.172Z,10.87
2023-01-01T23:06:05.114Z,11.37
2023-01-01T23:08:33.606Z,10.90
2023-01-01T23:11:03.852Z,10.63
2023-01-01T23:13:48.490Z,10.90
2023-01-01T23:16:16.754Z,9.40
2023-01-01T23:18:45.146Z,10.10
2023-01-01T23:21:18.938Z,10.90
2023-01-01T23:23:50.961Z,10.73
2023-01-01T23:26:21.158Z,12.50
2023-01-01T23:28:49.655Z,11.30
2023-01-01T23:31:24.506Z,10.60
2023-01-01T23:33:57.649Z,10.97
2023-01-01T23:36:26.607Z,10.00
2023-01-01T23:38:55.090Z,10.97
2023-01-01T23:41:25.426Z,10.30
2023-01-01T23:43:53.996Z,10.00
2023-01-01T23:46:23.102Z,9.57
2023-01-01T23:48:51.645Z,8.57
2023-01-01T23:51:20.226Z,9.10
2023-01-01T23:53:48.683Z,10.20
2023-01-01T23:56:17.232Z,10.13
2023-01-01T23:58:46.948Z,8.80
